Time;durP1;ratioP1;P1;durP2;ratioP2;P2;SDS_P1;SDS_P2;PMS_P1;PMS_P2;Temp;Humidity;BMP_temperature;BMP_pressure;BME280_temperature;BME280_humidity;BME280_pressure;Samples;Min_cycle;Max_cycle;Signal;HPM_P1;HPM_P2
2022/02/21 00:02:22;;;;;;;11.55;5.97;;;;;;;3.54;73.73;99306.98;1795900;79;21031;-69
2022/02/21 00:04:49;;;;;;;15.83;6.03;;;;;;;3.53;73.80;99305.25;1796003;79;21046;-68
2022/02/21 00:07:16;;;;;;;12.65;5.75;;;;;;;3.56;73.99;99297.36;1795784;79;21529;-68
2022/02/21 00:09:43;;;;;;;12.82;5.75;;;;;;;3.57;74.62;99296.48;1796024;79;21023;-67
2022/02/21 00:12:10;;;;;;;12.15;6.28;;;;;;;3.54;74.20;99291.36;1795707;79;21066;-69
2022/02/21 00:14:37;;;;;;;12.90;6.08;;;;;;;3.53;74.59;99297.44;1796009;79;20995;-69
2022/02/21 00:17:05;;;;;;;12.23;5.60;;;;;;;3.50;74.91;99292.30;1795928;79;21002;-69
2022/02/21 00:19:33;;;;;;;12.63;5.37;;;;;;;3.50;74.89;99298.81;1796090;79;21090;-68
2022/02/21 00:22:00;;;;;;;16.32;5.65;;;;;;;3.48;75.80;99291.48;1795765;79;21062;-68
2022/02/21 00:24:28;;;;;;;11.12;5.53;;;;;;;3.45;75.74;99296.77;1795716;78;21959;-68
2022/02/21 00:26:55;;;;;;;11.10;5.60;;;;;;;3.46;76.11;99301.52;1795694;79;21054;-69
2022/02/21 00:29:22;;;;;;;13.48;5.65;;;;;;;3.42;76.94;99312.42;1799415;79;21806;-70
2022/02/21 00:31:50;;;;;;;10.70;5.42;;;;;;;3.42;76.64;99309.82;1806173;79;21080;-68
2022/02/21 00:34:17;;;;;;;12.20;6.05;;;;;;;3.41;77.36;99310.73;1801179;79;21036;-69
2022/02/21 00:36:44;;;;;;;12.53;5.55;;;;;;;3.40;77.59;99308.14;1797889;79;21164;-69
2022/02/21 00:39:11;;;;;;;11.10;5.75;;;;;;;3.39;77.48;99302.09;1797955;79;21065;-69
2022/02/21 00:41:37;;;;;;;13.80;6.28;;;;;;;3.40;78.23;99301.19;1797494;79;21592;-68
2022/02/21 00:44:04;;;;;;;14.58;6.22;;;;;;;3.39;77.70;99309.05;1798163;79;21146;-69
2022/02/21 00:46:31;;;;;;;11.12;5.85;;;;;;;3.37;78.49;99301.27;1797723;79;21088;-68
2022/02/21 00:48:58;;;;;;;12.43;5.95;;;;;;;3.38;78.59;99295.16;1798080;79;22143;-69
2022/02/21 00:51:24;;;;;;;13.03;5.78;;;;;;;3.36;78.53;99293.05;1798124;79;21462;-67
2022/02/21 00:53:50;;;;;;;13.28;5.60;;;;;;;3.33;79.37;99287.89;1795106;79;21308;-69
2022/02/21 00:56:18;;;;;;;13.85;6.03;;;;;;;3.26;79.49;99288.91;1789901;79;21660;-69
2022/02/21 00:58:45;;;;;;;15.03;6.05;;;;;;;3.19;80.29;99286.88;1790013;79;21496;-69
2022/02/21 01:01:11;;;;;;;15.03;6.40;;;;;;;3.11;81.12;99289.64;1789767;80;21614;-69
2022/02/21 01:03:38;;;;;;;11.40;5.85;;;;;;;3.01;81.82;99282.89;1791714;79;21053;-67
2022/02/21 01:06:05;;;;;;;14.43;5.45;;;;;;;2.94;83.37;99276.10;1797810;79;21529;-69
2022/02/21 01:08:32;;;;;;;15.48;5.60;;;;;;;2.88;83.05;99280.15;1797977;79;21091;-69
2022/02/21 01:10:58;;;;;;;13.15;5.45;;;;;;;2.81;83.60;99285.05;1797720;79;21095;-68
2022/02/21 01:13:25;;;;;;;12.03;5.67;;;;;;;2.73;84.73;99280.83;1797897;79;21161;-68
2022/02/21 01:15:53;;;;;;;12.55;6.03;;;;;;;2.67;84.67;99269.72;1798109;79;21022;-69
2022/02/21 01:18:21;;;;;;;14.00;6.45;;;;;;;2.59;85.98;99269.84;1798158;79;21182;-69
2022/02/21 01:20:48;;;;;;;14.70;6.55;;;;;;;2.52;86.40;99268.23;1798288;79;21576;-68
2022/02/21 01:23:16;;;;;;;12.82;5.70;;;;;;;2.46;86.80;99269.22;1798076;78;21034;-68
2022/02/21 01:25:43;;;;;;;13.53;6.45;;;;;;;2.40;87.45;99273.66;1798273;79;21287;-69
2022/02/21 01:28:09;;;;;;;14.38;6.08;;;;;;;2.31;88.47;99272.08;1797731;79;21084;-68
2022/02/21 01:30:36;;;;;;;12.73;6.20;;;;;;;2.26;89.84;99275.20;1797708;79;21041;-68
2022/02/21 01:33:02;;;;;;;15.83;6.65;;;;;;;2.20;90.00;99280.04;1797709;79;21049;-69
2022/02/21 01:35:29;;;;;;;11.43;6.20;;;;;;;2.15;91.31;99275.81;1805885;79;21037;-68
2022/02/21 01:37:56;;;;;;;13.15;6.40;;;;;;;2.11;92.78;99281.48;1806214;79;21155;-68
2022/02/21 01:40:22;;;;;;;12.35;6.25;;;;;;;2.07;92.20;99273.32;1806152;79;21639;-68
2022/02/21 01:42:49;;;;;;;12.13;6.20;;;;;;;2.05;92.85;99279.02;1806092;79;21611;-68
2022/02/21 01:45:16;;;;;;;15.03;6.33;;;;;;;1.98;94.03;99276.06;1806255;79;22139;-69
2022/02/21 01:47:43;;;;;;;14.63;6.15;;;;;;;1.98;94.03;99276.06;1806191;79;21060;-68
2022/02/21 01:50:10;;;;;;;13.38;6.17;;;;;;;1.96;95.39;99283.91;1806126;79;21123;-68
2022/02/21 01:52:38;;;;;;;9.65;5.65;;;;;;;1.93;95.79;99267.50;1806317;78;21533;-68
2022/02/21 01:55:07;;;;;;;9.58;5.10;;;;;;;1.93;95.79;99267.50;1796912;79;21615;-68
2022/02/21 01:57:34;;;;;;;14.28;6.50;;;;;;;1.85;96.03;99265.03;1795997;79;21015;-69
2022/02/21 02:00:04;;;;;;;13.93;6.55;;;;;;;1.85;96.03;99265.03;1795885;79;21046;-69
2022/02/21 02:02:34;;;;;;;11.18;5.70;;;;;;;1.82;97.76;99267.69;1794716;79;21998;-68
2022/02/21 02:05:02;;;;;;;10.85;5.85;;;;;;;1.77;98.05;99266.46;1795426;79;21055;-67
2022/02/21 02:07:28;;;;;;;17.17;6.37;;;;;;;1.74;98.76;99256.55;1795886;79;21034;-69
2022/02/21 02:09:55;;;;;;;14.13;6.30;;;;;;;1.72;99.78;99258.30;1795873;79;22045;-68
2022/02/21 02:12:21;;;;;;;15.08;6.90;;;;;;;1.68;100.00;99252.32;1795900;79;21010;-67
2022/02/21 02:14:48;;;;;;;11.93;6.08;;;;;;;1.65;100.00;99252.34;1795879;79;22168;-69
2022/02/21 02:17:15;;;;;;;12.78;6.55;;;;;;;1.61;100.00;99251.55;1795758;79;21090;-69
2022/02/21 02:19:45;;;;;;;14.68;6.17;;;;;;;1.58;100.00;99245.53;1795771;79;21081;-69
2022/02/21 02:22:20;;;;;;;13.65;6.33;;;;;;;1.58;100.00;99245.53;1800002;78;21567;-69
2022/02/21 02:24:51;;;;;;;11.40;6.05;;;;;;;1.54;100.00;99254.23;1806386;79;21108;-72
2022/02/21 02:27:18;;;;;;;11.60;6.00;;;;;;;1.50;100.00;99256.48;1806265;79;21922;-69
2022/02/21 02:29:47;;;;;;;13.95;6.92;;;;;;;1.45;100.00;99259.99;1806369;79;21540;-68
2022/02/21 02:32:14;;;;;;;14.35;6.22;;;;;;;1.42;100.00;99265.20;1806226;79;21568;-69
2022/02/21 02:34:43;;;;;;;15.83;6.80;;;;;;;1.40;100.00;99261.80;1802489;79;21058;-69
2022/02/21 02:37:09;;;;;;;11.55;6.35;;;;;;;1.37;100.00;99257.08;1797938;79;21118;-68
2022/02/21 02:39:36;;;;;;;14.18;6.37;;;;;;;1.34;100.00;99264.91;1798168;79;22121;-69
2022/02/21 02:42:03;;;;;;;12.00;6.67;;;;;;;1.31;100.00;99263.63;1797722;79;21561;-69
2022/02/21 02:44:29;;;;;;;10.65;6.53;;;;;;;1.28;100.00;99264.53;1797973;79;21065;-68
2022/02/21 02:46:56;;;;;;;14.13;5.97;;;;;;;1.25;100.00;99266.73;1797943;79;21608;-68
2022/02/21 02:49:22;;;;;;;13.95;6.97;;;;;;;1.22;100.00;99265.91;1798276;79;21052;-68
2022/02/21 02:51:48;;;;;;;13.93;6.75;;;;;;;1.21;100.00;99260.31;1797841;79;21179;-68
2022/02/21 02:54:15;;;;;;;13.48;7.12;;;;;;;1.17;100.00;99254.73;1793900;79;21121;-69
2022/02/21 02:56:42;;;;;;;15.25;7.72;;;;;;;1.12;100.00;99253.95;1790024;79;21034;-69
2022/02/21 02:59:09;;;;;;;11.10;6.25;;;;;;;1.09;100.00;99255.30;1790273;79;21070;-68
2022/02/21 03:01:36;;;;;;;17.52;8.15;;;;;;;1.03;100.00;99254.47;1795121;79;21022;-68
2022/02/21 03:04:02;;;;;;;14.28;7.65;;;;;;;0.99;100.00;99246.33;1798074;79;21457;-68
2022/02/21 03:06:30;;;;;;;12.82;7.70;;;;;;;0.93;100.00;99243.80;1797648;79;21600;-68
2022/02/21 03:08:56;;;;;;;13.50;7.90;;;;;;;0.88;100.00;99236.53;1798132;79;20971;-68
2022/02/21 03:11:22;;;;;;;17.32;7.10;;;;;;;0.86;100.00;99242.16;1797557;79;21069;-68
2022/02/21 03:13:49;;;;;;;17.27;7.40;;;;;;;0.81;100.00;99238.78;1797850;79;21545;-69
2022/02/21 03:16:15;;;;;;;19.30;8.48;;;;;;;0.77;100.00;99244.87;1797686;79;21855;-68
2022/02/21 03:18:42;;;;;;;19.37;8.43;;;;;;;0.74;100.00;99244.91;1797912;79;21057;-68
2022/02/21 03:21:08;;;;;;;29.57;12.13;;;;;;;0.71;100.00;99242.33;1798082;79;21081;-68
2022/02/21 03:23:35;;;;;;;34.45;11.18;;;;;;;0.69;100.00;99235.01;1797747;78;20991;-68
2022/02/21 03:26:01;;;;;;;40.55;13.70;;;;;;;0.67;100.00;99238.05;1798226;79;21053;-69
2022/02/21 03:28:28;;;;;;;39.60;14.38;;;;;;;0.65;100.00;99235.95;1797863;79;21092;-67
2022/02/21 03:30:54;;;;;;;39.85;13.80;;;;;;;0.63;100.00;99227.73;1797719;79;21082;-67
2022/02/21 03:33:21;;;;;;;34.55;13.68;;;;;;;0.62;100.00;99228.63;1797936;79;21598;-68
2022/02/21 03:35:48;;;;;;;26.55;11.93;;;;;;;0.62;100.00;99223.44;1797703;79;21033;-69
2022/02/21 03:38:14;;;;;;;27.85;11.57;;;;;;;0.58;100.00;99216.57;1798122;79;21087;-68
2022/02/21 03:40:42;;;;;;;26.00;11.78;;;;;;;0.58;100.00;99218.31;1797890;79;21110;-68
2022/02/21 03:43:10;;;;;;;24.98;13.00;;;;;;;0.53;100.00;99211.00;1797598;79;21077;-69
2022/02/21 03:45:36;;;;;;;29.30;14.25;;;;;;;0.47;100.00;99213.23;1797848;79;21498;-68
2022/02/21 03:48:03;;;;;;;28.90;12.90;;;;;;;0.41;100.00;99208.11;1797707;79;21025;-68
2022/02/21 03:50:30;;;;;;;26.23;12.33;;;;;;;0.35;100.00;99210.78;1797840;79;21034;-68
2022/02/21 03:52:57;;;;;;;34.13;15.30;;;;;;;0.31;100.00;99211.69;1797959;79;21121;-68
2022/02/21 03:55:23;;;;;;;31.02;15.05;;;;;;;0.30;100.00;99216.42;1790078;79;21022;-69
2022/02/21 03:57:49;;;;;;;38.92;17.57;;;;;;;0.25;100.00;99213.03;1790392;79;21105;-68
2022/02/21 04:00:18;;;;;;;31.77;14.43;;;;;;;0.22;100.00;99216.95;1790865;79;21034;-68
2022/02/21 04:02:45;;;;;;;24.90;12.53;;;;;;;0.19;100.00;99212.67;1797905;79;21088;-68
2022/02/21 04:05:14;;;;;;;29.95;14.60;;;;;;;0.17;100.00;99200.17;1798024;79;21131;-68
2022/02/21 04:07:42;;;;;;;24.85;13.83;;;;;;;0.16;100.00;99194.55;1797715;79;21534;-68
2022/02/21 04:10:13;;;;;;;29.75;14.73;;;;;;;0.16;100.00;99190.25;1797698;79;21057;-68
2022/02/21 04:12:41;;;;;;;27.93;13.15;;;;;;;0.17;100.00;99186.78;1797793;79;21522;-70
2022/02/21 04:15:09;;;;;;;32.30;14.70;;;;;;;0.19;100.00;99184.19;1797697;79;21080;-68
2022/02/21 04:17:44;;;;;;;31.37;14.40;;;;;;;0.17;100.00;99181.59;1797620;79;21126;-68
2022/02/21 04:20:13;;;;;;;28.30;14.15;;;;;;;0.18;100.00;99187.63;1766249;81;22199;-68
2022/02/21 04:22:40;;;;;;;30.15;13.95;;;;;;;0.19;100.00;99187.63;1766514;79;21021;-68
2022/02/21 04:25:08;;;;;;;28.10;14.83;;;;;;;0.19;100.00;99187.63;1766524;81;21120;-69
2022/02/21 04:27:52;;;;;;;28.83;13.32;;;;;;;0.23;100.00;99191.47;1766275;80;21016;-68
2022/02/21 04:30:21;;;;;;;28.12;13.40;;;;;;;0.22;100.00;99182.00;1766470;81;21394;-67
2022/02/21 04:32:48;;;;;;;23.83;11.95;;;;;;;0.25;100.00;99176.33;1766087;80;21045;-68
2022/02/21 04:35:17;;;;;;;26.85;12.28;;;;;;;0.29;100.00;99171.99;1769818;80;21068;-68
2022/02/21 04:39:04;;;;;;;25.23;12.73;;;;;;;0.37;100.00;99162.42;1814114;79;22601;-69
2022/02/21 04:41:31;;;;;;;27.20;13.38;;;;;;;0.33;100.00;99160.73;1787409;80;21028;-69
2022/02/21 04:43:58;;;;;;;26.90;12.00;;;;;;;0.36;100.00;99159.39;1787411;80;21123;-69
2022/02/21 04:46:24;;;;;;;24.35;12.23;;;;;;;0.38;100.00;99158.94;1787250;80;21029;-68
2022/02/21 04:48:50;;;;;;;29.92;13.43;;;;;;;0.39;100.00;99163.23;1787456;80;21561;-69
2022/02/21 04:51:17;;;;;;;28.45;13.03;;;;;;;0.41;100.00;99157.19;1787390;80;21295;-69
2022/02/21 04:53:43;;;;;;;28.95;13.30;;;;;;;0.43;100.00;99142.90;1775564;80;21182;-67
2022/02/21 04:56:10;;;;;;;25.20;12.80;;;;;;;0.44;100.00;99137.28;1750286;81;21347;-69
2022/02/21 04:58:36;;;;;;;25.72;12.55;;;;;;;0.47;100.00;99140.70;1750284;82;21025;-69
2022/02/21 05:01:03;;;;;;;28.70;12.58;;;;;;;0.49;100.00;99138.95;1750074;82;21628;-68
2022/02/21 05:03:30;;;;;;;23.38;11.83;;;;;;;0.50;100.00;99145.84;1750273;82;21877;-69
2022/02/21 05:05:58;;;;;;;24.95;14.05;;;;;;;0.52;100.00;99145.38;1750167;82;21037;-68
2022/02/21 05:08:26;;;;;;;23.30;13.03;;;;;;;0.52;100.00;99138.91;1750429;82;21177;-68
2022/02/21 05:10:53;;;;;;;26.95;12.80;;;;;;;0.56;100.00;99145.77;1750412;82;22035;-68
2022/02/21 05:13:19;;;;;;;28.80;14.07;;;;;;;0.56;100.00;99150.10;1750582;82;21068;-68
2022/02/21 05:15:46;;;;;;;26.75;14.15;;;;;;;0.60;100.00;99152.64;1750353;82;21053;-68
2022/02/21 05:18:12;;;;;;;29.63;16.23;;;;;;;0.61;100.00;99147.86;1750697;82;21049;-67
2022/02/21 05:20:39;;;;;;;29.50;15.88;;;;;;;0.62;100.00;99150.89;1750551;82;21178;-71
2022/02/21 05:23:06;;;;;;;30.60;14.98;;;;;;;0.65;100.00;99147.84;1733020;82;21600;-69
2022/02/21 05:25:32;;;;;;;37.40;17.23;;;;;;;0.66;100.00;99145.66;1720498;83;21081;-68
2022/02/21 05:27:59;;;;;;;29.85;16.45;;;;;;;0.67;100.00;99139.58;1720891;83;21049;-68
2022/02/21 05:30:25;;;;;;;28.73;15.88;;;;;;;0.69;100.00;99140.42;1720829;83;21080;-69
2022/02/21 05:32:51;;;;;;;31.23;18.05;;;;;;;0.71;100.00;99139.52;1720501;83;21498;-69
2022/02/21 05:35:18;;;;;;;29.90;16.45;;;;;;;0.74;100.00;99142.09;1720428;83;21057;-68
2022/02/21 05:37:47;;;;;;;30.37;17.17;;;;;;;0.76;100.00;99135.58;1716182;83;21077;-69
2022/02/21 05:40:14;;;;;;;33.08;18.17;;;;;;;0.78;100.00;99132.53;1707533;84;21077;-68
2022/02/21 05:42:41;;;;;;;30.90;15.68;;;;;;;0.81;100.00;99132.51;1707576;84;21565;-68
2022/02/21 05:45:08;;;;;;;33.95;17.25;;;;;;;0.85;100.00;99135.45;1707375;83;21157;-68
2022/02/21 05:47:34;;;;;;;29.07;14.75;;;;;;;0.86;100.00;99120.34;1707476;84;21288;-68
2022/02/21 05:50:00;;;;;;;27.82;15.08;;;;;;;0.95;100.00;99127.98;1707076;84;21058;-69
2022/02/21 05:52:27;;;;;;;29.70;14.63;;;;;;;0.96;100.00;99130.98;1707268;84;21625;-69
2022/02/21 05:54:54;;;;;;;27.13;14.13;;;;;;;1.01;100.00;99116.66;1735785;82;21092;-68
2022/02/21 05:57:20;;;;;;;29.35;14.35;;;;;;;1.03;100.00;99121.38;1742522;82;21531;-69
2022/02/21 05:59:47;;;;;;;32.42;14.07;;;;;;;1.04;100.00;99116.19;1742574;82;21125;-68
2022/02/21 06:02:13;;;;;;;28.35;15.30;;;;;;;1.10;100.00;99119.56;1742668;82;21631;-68
2022/02/21 06:04:39;;;;;;;28.87;13.70;;;;;;;1.12;100.00;99106.98;1742678;82;21087;-68
2022/02/21 06:07:06;;;;;;;25.60;13.85;;;;;;;1.14;100.00;99105.67;1742406;82;21061;-68
2022/02/21 06:09:34;;;;;;;26.20;13.03;;;;;;;1.25;100.00;99106.38;1742650;82;21943;-68
2022/02/21 06:12:00;;;;;;;22.35;11.68;;;;;;;1.33;100.00;99107.53;1742826;82;21037;-68
2022/02/21 06:14:28;;;;;;;26.07;12.63;;;;;;;1.39;100.00;99096.63;1742502;82;21577;-69
2022/02/21 06:16:54;;;;;;;23.10;12.70;;;;;;;1.46;100.00;99100.83;1742823;82;21549;-68
2022/02/21 06:19:20;;;;;;;27.10;12.35;;;;;;;1.54;100.00;99103.73;1742739;82;21029;-69
2022/02/21 06:21:47;;;;;;;31.85;14.07;;;;;;;1.64;100.00;99102.71;1742709;82;21503;-68
2022/02/21 06:24:13;;;;;;;23.15;12.70;;;;;;;1.73;100.00;99093.47;1742491;82;21033;-69
2022/02/21 06:26:40;;;;;;;23.90;12.98;;;;;;;1.84;100.00;99094.55;1742802;82;21109;-69
2022/02/21 06:29:08;;;;;;;33.85;15.55;;;;;;;1.97;100.00;99090.00;1742477;82;21018;-69
2022/02/21 06:31:35;;;;;;;24.65;13.90;;;;;;;2.10;100.00;99088.44;1742489;82;21025;-69
2022/02/21 06:34:02;;;;;;;33.38;14.35;;;;;;;2.23;100.00;99087.77;1742497;82;21171;-68
2022/02/21 06:36:29;;;;;;;30.10;15.08;;;;;;;2.56;100.00;99069.77;1742365;82;20990;-68
2022/02/21 06:38:55;;;;;;;30.68;14.85;;;;;;;2.94;100.00;99068.05;1742420;82;21044;-69
2022/02/21 06:41:23;;;;;;;27.22;13.75;;;;;;;2.94;100.00;99068.05;1742534;82;21117;-68
2022/02/21 06:43:50;;;;;;;26.97;14.45;;;;;;;3.25;98.48;99064.73;1742501;82;21093;-69
2022/02/21 06:46:17;;;;;;;27.85;13.98;;;;;;;3.43;98.39;99052.99;1742300;82;21741;-69
2022/02/21 06:48:44;;;;;;;24.32;13.60;;;;;;;3.71;96.30;99059.67;1742503;82;21153;-68
2022/02/21 06:51:11;;;;;;;22.17;12.05;;;;;;;3.87;94.54;99059.67;1742449;82;21041;-69
2022/02/21 06:53:39;;;;;;;28.07;13.10;;;;;;;3.90;93.20;99053.52;1742627;82;21489;-68
2022/02/21 06:56:07;;;;;;;30.17;12.68;;;;;;;3.80;92.46;99055.52;1742546;82;21060;-68
2022/02/21 06:58:34;;;;;;;26.73;12.70;;;;;;;3.74;92.53;99058.28;1742854;82;21516;-68
2022/02/21 07:01:00;;;;;;;26.50;12.45;;;;;;;3.73;93.36;99061.79;1742372;82;21485;-69
2022/02/21 07:03:27;;;;;;;23.95;11.95;;;;;;;3.72;92.35;99055.70;1742689;82;20986;-69
2022/02/21 07:05:53;;;;;;;25.72;12.70;;;;;;;3.72;92.69;99055.70;1742444;82;21064;-69
2022/02/21 07:08:20;;;;;;;29.32;12.28;;;;;;;3.65;92.08;99061.13;1742432;82;21111;-68
2022/02/21 07:10:46;;;;;;;21.73;11.35;;;;;;;3.58;91.58;99053.91;1742746;82;21554;-69
2022/02/21 07:13:12;;;;;;;31.62;11.25;;;;;;;3.55;92.72;99060.05;1742379;82;21005;-69
2022/02/21 07:15:39;;;;;;;21.37;8.90;;;;;;;3.56;91.66;99052.64;1742386;82;21537;-69
2022/02/21 07:18:05;;;;;;;21.82;10.05;;;;;;;3.57;90.32;99046.56;1742489;82;21032;-69
2022/02/21 07:20:32;;;;;;;23.50;10.10;;;;;;;3.63;90.66;99053.80;1742840;82;21024;-69
2022/02/21 07:22:58;;;;;;;20.92;9.90;;;;;;;3.66;89.78;99043.29;1742716;80;22061;-69
2022/02/21 07:25:25;;;;;;;25.60;10.30;;;;;;;3.71;89.87;99046.65;1742851;82;21071;-69
2022/02/21 07:27:52;;;;;;;26.75;9.25;;;;;;;3.75;88.65;99041.74;1742615;82;21036;-69
2022/02/21 07:30:26;;;;;;;20.23;8.05;;;;;;;3.84;88.99;99041.49;1742544;82;20984;-69
2022/02/21 07:32:52;;;;;;;21.48;9.18;;;;;;;3.92;86.87;99029.59;1742487;82;21064;-68
2022/02/21 07:35:19;;;;;;;17.87;8.10;;;;;;;4.00;86.82;99031.52;1742466;82;21110;-69
2022/02/21 07:37:45;;;;;;;20.17;8.93;;;;;;;4.06;86.89;99028.75;1741146;82;21096;-69
2022/02/21 07:40:12;;;;;;;15.00;6.47;;;;;;;4.13;84.91;99029.43;1707530;84;21105;-69
2022/02/21 07:42:39;;;;;;;18.70;7.47;;;;;;;4.23;84.05;99033.92;1677848;85;21598;-69
2022/02/21 07:45:08;;;;;;;20.77;8.45;;;;;;;4.29;83.54;99027.24;1661098;86;21037;-69
2022/02/21 07:47:50;;;;;;;16.85;6.62;;;;;;;4.36;83.04;99029.62;1725337;83;21118;-69
2022/02/21 07:50:17;;;;;;;19.00;7.62;;;;;;;4.44;81.73;99025.92;1706969;84;21230;-70
2022/02/21 07:52:44;;;;;;;14.58;5.80;;;;;;;4.48;81.82;99024.94;1690345;84;21505;-68
2022/02/21 07:55:12;;;;;;;16.27;6.28;;;;;;;4.55;79.90;99022.55;1700253;83;21097;-68
2022/02/21 07:57:40;;;;;;;15.90;6.42;;;;;;;4.57;79.59;99030.73;1697915;83;21030;-67
2022/02/21 08:00:10;;;;;;;12.25;5.83;;;;;;;4.61;79.90;99013.25;1697953;83;21156;-68
2022/02/21 08:02:40;;;;;;;15.13;7.72;;;;;;;4.66;79.02;99020.47;1698162;83;21197;-69
2022/02/21 08:05:08;;;;;;;15.38;6.60;;;;;;;4.74;79.49;99019.80;1697999;84;21050;-68
2022/02/21 08:07:36;;;;;;;14.43;6.78;;;;;;;4.76;78.42;99004.96;1698007;84;21107;-69
2022/02/21 08:10:03;;;;;;;18.65;6.83;;;;;;;4.87;79.84;99009.81;1678110;84;21079;-69
2022/02/21 08:12:31;;;;;;;11.90;4.97;;;;;;;4.96;77.19;99003.46;1678163;84;21120;-68
2022/02/21 08:14:58;;;;;;;10.35;4.37;;;;;;;4.99;76.41;99008.56;1697830;83;21033;-69
2022/02/21 08:17:26;;;;;;;16.93;5.08;;;;;;;5.06;76.05;98998.33;1697771;84;21501;-68
2022/02/21 08:19:54;;;;;;;10.53;5.83;;;;;;;5.10;75.38;98996.03;1698216;84;21065;-69
2022/02/21 08:22:20;;;;;;;13.72;6.25;;;;;;;5.22;75.56;98988.24;1697712;84;21421;-69
2022/02/21 08:24:46;;;;;;;14.93;6.12;;;;;;;5.31;75.04;98988.39;1698274;83;21852;-69
2022/02/21 08:27:13;;;;;;;8.90;4.40;;;;;;;5.46;74.26;98983.97;1697636;84;21029;-69
2022/02/21 08:29:40;;;;;;;12.13;5.05;;;;;;;5.69;72.66;98987.08;1697688;84;22220;-69
2022/02/21 08:32:07;;;;;;;12.78;6.17;;;;;;;5.80;69.67;98990.16;1697498;84;21534;-69
2022/02/21 08:34:34;;;;;;;16.75;5.90;;;;;;;5.89;69.16;98978.53;1697873;84;21053;-69
2022/02/21 08:37:01;;;;;;;12.88;4.85;;;;;;;5.93;67.87;98984.02;1697606;84;21135;-69
2022/02/21 08:39:27;;;;;;;18.67;5.50;;;;;;;5.96;62.23;98971.33;1730045;80;21010;-68
2022/02/21 08:41:54;;;;;;;12.98;5.08;;;;;;;6.01;61.94;98975.50;1750657;82;21482;-69
2022/02/21 08:44:20;;;;;;;12.93;6.10;;;;;;;6.05;61.60;98974.91;1750828;82;21525;-68
2022/02/21 08:46:47;;;;;;;12.13;5.45;;;;;;;6.14;61.45;98978.49;1750581;82;21033;-69
2022/02/21 08:49:13;;;;;;;7.53;4.83;;;;;;;6.19;60.92;98978.32;1750991;82;22154;-70
2022/02/21 08:51:39;;;;;;;9.33;4.95;;;;;;;6.16;60.01;98981.05;1750569;82;21045;-69
2022/02/21 08:54:09;;;;;;;9.95;4.87;;;;;;;6.24;60.44;98970.72;1735380;82;21537;-69
2022/02/21 08:56:35;;;;;;;14.63;5.33;;;;;;;6.37;59.48;98971.08;1717863;83;21517;-70
2022/02/21 08:59:02;;;;;;;14.55;4.90;;;;;;;6.45;58.99;98953.81;1718119;83;21636;-69
2022/02/21 09:01:28;;;;;;;15.60;5.28;;;;;;;6.64;58.14;98959.16;1717737;83;21503;-69
2022/02/21 09:03:55;;;;;;;21.42;5.83;;;;;;;6.91;57.08;98960.67;1717869;83;21103;-69
2022/02/21 09:06:21;;;;;;;23.42;5.75;;;;;;;7.10;56.32;98967.30;1717558;83;21652;-69
2022/02/21 09:08:48;;;;;;;13.58;4.78;;;;;;;7.14;56.18;98945.79;1717744;83;21069;-69
2022/02/21 09:11:14;;;;;;;15.48;4.95;;;;;;;7.38;54.77;98935.18;1718189;83;21064;-69
2022/02/21 09:13:41;;;;;;;10.82;4.50;;;;;;;7.78;54.34;98927.28;1717790;83;21989;-70
2022/02/21 09:16:07;;;;;;;13.28;5.08;;;;;;;8.49;51.90;98927.13;1718091;83;21083;-69
2022/02/21 09:18:35;;;;;;;19.17;5.10;;;;;;;8.61;51.25;98936.58;1717935;83;21053;-70
2022/02/21 09:21:02;;;;;;;23.85;5.60;;;;;;;8.55;51.50;98930.31;1718316;83;21155;-69
2022/02/21 09:23:29;;;;;;;8.38;4.42;;;;;;;8.35;51.17;98926.44;1718176;83;21025;-69
2022/02/21 09:25:55;;;;;;;8.50;3.85;;;;;;;8.26;51.09;98918.99;1718567;83;21473;-69
2022/02/21 09:28:22;;;;;;;11.80;4.78;;;;;;;8.15;51.76;98936.09;1718009;83;21068;-69
2022/02/21 09:30:48;;;;;;;7.33;3.62;;;;;;;8.12;51.97;98919.20;1717912;83;21180;-69
2022/02/21 09:33:15;;;;;;;16.95;5.10;;;;;;;8.03;51.80;98920.94;1718055;83;21068;-69
2022/02/21 09:35:41;;;;;;;13.30;5.30;;;;;;;7.90;52.38;98915.86;1718016;83;21079;-70
2022/02/21 09:38:10;;;;;;;11.53;5.25;;;;;;;7.89;52.35;98911.08;1717992;83;21109;-69
2022/02/21 09:40:36;;;;;;;14.20;5.28;;;;;;;7.72;52.20;98914.44;1746275;82;21042;-68
2022/02/21 09:43:02;;;;;;;9.75;4.75;;;;;;;7.60;52.77;98907.14;1747874;82;21517;-70
2022/02/21 09:45:30;;;;;;;10.82;4.65;;;;;;;7.59;52.74;98897.56;1747802;82;21072;-69
2022/02/21 09:47:57;;;;;;;16.73;5.50;;;;;;;7.59;52.23;98900.64;1747954;82;21053;-69
2022/02/21 09:50:26;;;;;;;12.53;5.53;;;;;;;7.58;52.68;98897.65;1718686;82;21164;-69
2022/02/21 09:53:01;;;;;;;14.23;5.28;;;;;;;7.59;53.15;98898.87;1747815;82;21061;-69
2022/02/21 09:55:25;;;;;;;10.58;5.17;;;;;;;7.72;52.96;98899.19;1717390;83;21010;-69
2022/02/21 09:57:51;;;;;;;9.35;4.03;;;;;;;7.73;52.96;98896.50;1717801;83;21124;-69
2022/02/21 10:00:18;;;;;;;15.10;5.87;;;;;;;7.58;52.01;98902.42;1718295;83;21040;-69
2022/02/21 10:02:47;;;;;;;15.65;5.75;;;;;;;7.50;52.58;98894.03;1717982;83;22254;-69
2022/02/21 10:05:16;;;;;;;14.73;4.62;;;;;;;7.48;52.98;98886.27;1717671;83;21060;-69
2022/02/21 10:07:44;;;;;;;13.78;4.90;;;;;;;7.42;52.71;98879.13;1718184;83;21030;-69
2022/02/21 10:10:16;;;;;;;11.85;5.40;;;;;;;7.43;53.42;98884.75;1717879;83;21065;-69
2022/02/21 10:12:48;;;;;;;11.00;4.20;;;;;;;7.35;53.38;98890.33;1718086;83;21108;-69
2022/02/21 10:15:22;;;;;;;12.80;5.50;;;;;;;7.37;53.28;98871.48;1718246;83;21280;-69
2022/02/21 10:17:50;;;;;;;14.03;4.47;;;;;;;7.38;53.78;98886.73;1717686;83;21136;-70
2022/02/21 10:20:18;;;;;;;12.40;4.97;;;;;;;7.38;53.31;98881.48;1717896;83;21052;-69
2022/02/21 10:23:03;;;;;;;11.08;5.35;;;;;;;7.40;53.84;98871.80;1718080;83;21119;-69
2022/02/21 10:25:30;;;;;;;17.42;6.65;;;;;;;7.40;53.50;98870.48;1718034;83;21115;-69
2022/02/21 10:27:59;;;;;;;11.35;5.83;;;;;;;7.43;53.27;98872.96;1717694;83;21142;-69
2022/02/21 10:30:26;;;;;;;10.00;4.65;;;;;;;7.50;53.13;98869.15;1718151;83;21538;-69
2022/02/21 10:32:53;;;;;;;17.62;7.28;;;;;;;7.55;52.65;98864.58;1717767;83;21034;-69
2022/02/21 10:35:30;;;;;;;14.05;5.60;;;;;;;7.57;52.89;98860.13;1718219;83;21076;-69
2022/02/21 10:38:03;;;;;;;14.25;5.87;;;;;;;7.60;52.91;98861.28;1717086;83;21041;-69
2022/02/21 10:40:36;;;;;;;10.70;5.25;;;;;;;7.62;53.07;98846.34;1720025;83;21169;-69
2022/02/21 10:43:09;;;;;;;11.88;3.85;;;;;;;7.59;52.49;98860.03;1720586;83;21553;-69
2022/02/21 10:45:37;;;;;;;10.18;4.28;;;;;;;7.47;52.44;98858.82;1720949;83;21080;-69
2022/02/21 10:48:10;;;;;;;13.22;6.03;;;;;;;7.34;52.88;98851.52;1720586;83;21089;-69
2022/02/21 10:50:41;;;;;;;12.40;3.77;;;;;;;7.31;53.29;98843.77;1720769;83;21561;-69
2022/02/21 10:53:10;;;;;;;13.63;4.43;;;;;;;7.27;52.95;98840.92;1719689;83;21064;-70
2022/02/21 10:55:37;;;;;;;15.63;5.60;;;;;;;7.29;53.19;98848.25;1715072;83;21101;-69
2022/02/21 10:58:23;;;;;;;9.35;4.60;;;;;;;7.31;53.52;98849.01;1714672;83;21100;-69
2022/02/21 11:00:50;;;;;;;13.78;4.62;;;;;;;7.43;53.84;98842.84;1714715;83;21092;-69
2022/02/21 11:03:24;;;;;;;10.88;4.72;;;;;;;7.52;52.92;98842.42;1714899;83;21056;-69
2022/02/21 11:05:53;;;;;;;11.55;3.77;;;;;;;7.55;53.27;98836.61;1715106;83;21691;-69
2022/02/21 11:08:20;;;;;;;16.52;5.75;;;;;;;7.63;53.37;98850.66;1714830;83;21536;-69
2022/02/21 11:10:57;;;;;;;12.37;5.33;;;;;;;7.70;53.16;98836.81;1715189;83;21056;-69
2022/02/21 11:13:23;;;;;;;14.10;5.72;;;;;;;7.80;53.18;98846.41;1714968;83;21101;-69
2022/02/21 11:15:50;;;;;;;13.70;4.53;;;;;;;7.74;52.89;98826.13;1715120;83;21498;-69
2022/02/21 11:18:19;;;;;;;10.32;5.03;;;;;;;7.78;52.85;98829.00;1663485;83;21144;-69
2022/02/21 11:20:46;;;;;;;15.85;5.92;;;;;;;7.81;53.16;98827.16;1715115;83;21121;-69
2022/02/21 11:23:12;;;;;;;17.30;6.12;;;;;;;7.90;53.32;98838.53;1714842;82;21076;-69
2022/02/21 11:25:56;;;;;;;14.33;6.62;;;;;;;7.95;53.03;98828.67;1715145;83;21061;-69
2022/02/21 11:28:28;;;;;;;18.20;6.95;;;;;;;7.96;53.17;98827.77;1714769;83;21080;-69
2022/02/21 11:31:01;;;;;;;15.90;7.83;;;;;;;7.92;53.49;98815.72;1714764;83;21128;-69